Mirando City, Texas
Current Conditions -  °F | °C
As of 12:15 PM on Friday 31 Oct 2014 (Local Time) from KHBV Reporting Station
Scattered Clouds Scattered Clouds  
Wind Chill: 68°   Ceiling: Unl
Heat Index: 68°   Visibility: 10mi
Dew Point: 65°   Wind: 9mph
Humidity: 89%   Direction: 40°NE
Pressure: 30.25"   Gusts: NA
Location:  27.44°N, 99°W
Report Text: KHBV 311715Z AUTO 04008KT 10SM SCT026 SCT041 20/18 A3025 RMK AO2 T01990181 PWINO
Loading
Personal Weather Stations






























Interactive Weather Map
Tropical Storm Tracking
New forecast layout! Learn more

10-Day Weather Forecast

Advertisements
Track Severe Weather on mobile